sensor_id;sensor_type;location;lat;lon;timestamp;pressure;altitude;pressure_sealevel;temperature;humidity
46836;BME280;32573;51.290;6.926;2022-11-20T00:01:29;99806.69;;;3.51;100.00
46836;BME280;32573;51.290;6.926;2022-11-20T00:03:58;99816.31;;;3.54;100.00
46836;BME280;32573;51.290;6.926;2022-11-20T00:06:27;99806.84;;;3.54;100.00
46836;BME280;32573;51.290;6.926;2022-11-20T00:08:57;99808.69;;;3.57;100.00
46836;BME280;32573;51.290;6.926;2022-11-20T00:11:28;99805.38;;;3.59;100.00
46836;BME280;32573;51.290;6.926;2022-11-20T00:14:00;99806.28;;;3.60;100.00
46836;BME280;32573;51.290;6.926;2022-11-20T00:16:30;99802.78;;;3.59;100.00
46836;BME280;32573;51.290;6.926;2022-11-20T00:18:59;99811.50;;;3.61;100.00
46836;BME280;32573;51.290;6.926;2022-11-20T00:21:29;99809.81;;;3.62;100.00
46836;BME280;32573;51.290;6.926;2022-11-20T00:23:58;99805.59;;;3.64;100.00
46836;BME280;32573;51.290;6.926;2022-11-20T00:26:28;99804.72;;;3.63;100.00
46836;BME280;32573;51.290;6.926;2022-11-20T00:28:59;99802.28;;;3.66;100.00
46836;BME280;32573;51.290;6.926;2022-11-20T00:31:29;99802.34;;;3.68;100.00
46836;BME280;32573;51.290;6.926;2022-11-20T00:33:58;99807.53;;;3.68;100.00
46836;BME280;32573;51.290;6.926;2022-11-20T00:36:28;99805.03;;;3.70;100.00
46836;BME280;32573;51.290;6.926;2022-11-20T00:38:57;99809.38;;;3.71;100.00
46836;BME280;32573;51.290;6.926;2022-11-20T00:41:28;99805.97;;;3.72;100.00
46836;BME280;32573;51.290;6.926;2022-11-20T00:43:57;99802.59;;;3.73;100.00
46836;BME280;32573;51.290;6.926;2022-11-20T00:46:27;99802.66;;;3.74;100.00
46836;BME280;32573;51.290;6.926;2022-11-20T00:48:56;99803.56;;;3.75;100.00
46836;BME280;32573;51.290;6.926;2022-11-20T00:51:26;99800.16;;;3.76;100.00
46836;BME280;32573;51.290;6.926;2022-11-20T00:53:55;99805.41;;;3.77;100.00
46836;BME280;32573;51.290;6.926;2022-11-20T00:56:24;99796.81;;;3.78;100.00
46836;BME280;32573;51.290;6.926;2022-11-20T00:58:52;99801.09;;;3.78;100.00
46836;BME280;32573;51.290;6.926;2022-11-20T01:01:23;99802.88;;;3.79;100.00
46836;BME280;32573;51.290;6.926;2022-11-20T01:03:54;99806.34;;;3.79;100.00
46836;BME280;32573;51.290;6.926;2022-11-20T01:06:24;99803.84;;;3.81;100.00
46836;BME280;32573;51.290;6.926;2022-11-20T01:08:55;99798.75;;;3.82;100.00
46836;BME280;32573;51.290;6.926;2022-11-20T01:11:26;99804.81;;;3.83;100.00
46836;BME280;32573;51.290;6.926;2022-11-20T01:13:56;99799.63;;;3.83;100.00
46836;BME280;32573;51.290;6.926;2022-11-20T01:16:27;99791.97;;;3.84;100.00
46836;BME280;32573;51.290;6.926;2022-11-20T01:18:59;99784.25;;;3.86;100.00
46836;BME280;32573;51.290;6.926;2022-11-20T01:21:29;99783.44;;;3.87;100.00
46836;BME280;32573;51.290;6.926;2022-11-20T01:23:58;99786.91;;;3.87;100.00
46836;BME280;32573;51.290;6.926;2022-11-20T01:26:28;99783.50;;;3.88;100.00
46836;BME280;32573;51.290;6.926;2022-11-20T01:28:58;99786.97;;;3.89;100.00
46836;BME280;32573;51.290;6.926;2022-11-20T01:31:28;99781.00;;;3.90;100.00
46836;BME280;32573;51.290;6.926;2022-11-20T01:34:00;99778.41;;;3.90;100.00
46836;BME280;32573;51.290;6.926;2022-11-20T01:36:30;99779.28;;;3.91;100.00
46836;BME280;32573;51.290;6.926;2022-11-20T01:39:02;99787.06;;;3.91;100.00
46836;BME280;32573;51.290;6.926;2022-11-20T01:41:32;99786.19;;;3.90;100.00
46836;BME280;32573;51.290;6.926;2022-11-20T01:44:20;99779.22;;;3.89;100.00
46836;BME280;32573;51.290;6.926;2022-11-20T01:46:54;99786.91;;;3.87;100.00
46836;BME280;32573;51.290;6.926;2022-11-20T01:49:36;99783.38;;;3.85;100.00
46836;BME280;32573;51.290;6.926;2022-11-20T01:52:11;99786.78;;;3.84;100.00
46836;BME280;32573;51.290;6.926;2022-11-20T01:54:50;99784.25;;;3.86;100.00
46836;BME280;32573;51.290;6.926;2022-11-20T01:57:20;99783.38;;;3.85;100.00
46836;BME280;32573;51.290;6.926;2022-11-20T01:59:56;99783.44;;;3.87;100.00
46836;BME280;32573;51.290;6.926;2022-11-20T02:02:25;99772.28;;;3.88;100.00
46836;BME280;32573;51.290;6.926;2022-11-20T02:04:57;99779.22;;;3.89;100.00
46836;BME280;32573;51.290;6.926;2022-11-20T02:07:28;99776.63;;;3.89;100.00
46836;BME280;32573;51.290;6.926;2022-11-20T02:09:58;99780.19;;;3.91;100.00
46836;BME280;32573;51.290;6.926;2022-11-20T02:12:26;99775.00;;;3.91;100.00
46836;BME280;32573;51.290;6.926;2022-11-20T02:15:12;99765.59;;;3.93;100.00
46836;BME280;32573;51.290;6.926;2022-11-20T02:17:40;99763.84;;;3.92;100.00
46836;BME280;32573;51.290;6.926;2022-11-20T02:20:11;99773.38;;;3.93;100.00
46836;BME280;32573;51.290;6.926;2022-11-20T02:22:48;99764.78;;;3.94;100.00
46836;BME280;32573;51.290;6.926;2022-11-20T02:25:21;99761.31;;;3.94;100.00
46836;BME280;32573;51.290;6.926;2022-11-20T02:27:50;99753.63;;;3.95;100.00
46836;BME280;32573;51.290;6.926;2022-11-20T02:30:19;99753.63;;;3.95;100.00
46836;BME280;32573;51.290;6.926;2022-11-20T02:32:47;99748.44;;;3.95;100.00
46836;BME280;32573;51.290;6.926;2022-11-20T02:35:41;99748.44;;;3.95;100.00
46836;BME280;32573;51.290;6.926;2022-11-20T02:38:09;99755.38;;;3.96;100.00
46836;BME280;32573;51.290;6.926;2022-11-20T02:40:39;99753.63;;;3.95;100.00
46836;BME280;32573;51.290;6.926;2022-11-20T02:43:08;99755.38;;;3.96;100.00
46836;BME280;32573;51.290;6.926;2022-11-20T02:45:37;99751.91;;;3.96;100.00
46836;BME280;32573;51.290;6.926;2022-11-20T02:48:06;99753.63;;;3.95;100.00
46836;BME280;32573;51.290;6.926;2022-11-20T02:50:37;99748.44;;;3.95;100.00
46836;BME280;32573;51.290;6.926;2022-11-20T02:53:06;99743.28;;;3.95;100.00
46836;BME280;32573;51.290;6.926;2022-11-20T02:55:35;99745.03;;;3.96;100.00
46836;BME280;32573;51.290;6.926;2022-11-20T02:58:05;99745.03;;;3.96;100.00
46836;BME280;32573;51.290;6.926;2022-11-20T03:00:33;99740.75;;;3.97;100.00
46836;BME280;32573;51.290;6.926;2022-11-20T03:03:02;99745.03;;;3.96;100.00
46836;BME280;32573;51.290;6.926;2022-11-20T03:05:30;99735.56;;;3.97;100.00
46836;BME280;32573;51.290;6.926;2022-11-20T03:07:59;99733.88;;;3.97;100.00
46836;BME280;32573;51.290;6.926;2022-11-20T03:10:27;99730.31;;;3.95;100.00
46836;BME280;32573;51.290;6.926;2022-11-20T03:12:56;99727.75;;;3.95;100.00
46836;BME280;32573;51.290;6.926;2022-11-20T03:15:26;99729.44;;;3.95;100.00
46836;BME280;32573;51.290;6.926;2022-11-20T03:17:54;99736.31;;;3.94;100.00
46836;BME280;32573;51.290;6.926;2022-11-20T03:20:23;99732.84;;;3.94;100.00
46836;BME280;32573;51.290;6.926;2022-11-20T03:22:53;99734.53;;;3.93;100.00
46836;BME280;32573;51.290;6.926;2022-11-20T03:25:22;99729.38;;;3.93;100.00
46836;BME280;32573;51.290;6.926;2022-11-20T03:27:50;99735.38;;;3.92;100.00
46836;BME280;32573;51.290;6.926;2022-11-20T03:30:19;99735.38;;;3.92;100.00
46836;BME280;32573;51.290;6.926;2022-11-20T03:32:54;99738.69;;;3.89;100.00
46836;BME280;32573;51.290;6.926;2022-11-20T03:35:22;99734.25;;;3.87;100.00
46836;BME280;32573;51.290;6.926;2022-11-20T03:37:51;99721.31;;;3.87;100.00
46836;BME280;32573;51.290;6.926;2022-11-20T03:40:19;99719.53;;;3.86;100.00
46836;BME280;32573;51.290;6.926;2022-11-20T03:42:47;99726.50;;;3.87;100.00
46836;BME280;32573;51.290;6.926;2022-11-20T03:45:17;99723.91;;;3.87;100.00
46836;BME280;32573;51.290;6.926;2022-11-20T03:47:46;99721.38;;;3.88;100.00
46836;BME280;32573;51.290;6.926;2022-11-20T03:50:16;99719.63;;;3.87;100.00
46836;BME280;32573;51.290;6.926;2022-11-20T03:52:44;99724.78;;;3.87;100.00
46836;BME280;32573;51.290;6.926;2022-11-20T03:55:13;99721.31;;;3.87;100.00
46836;BME280;32573;51.290;6.926;2022-11-20T03:57:42;99723.09;;;3.88;100.00
46836;BME280;32573;51.290;6.926;2022-11-20T04:00:11;99715.31;;;3.88;100.00
46836;BME280;32573;51.290;6.926;2022-11-20T04:02:40;99721.38;;;3.88;100.00
46836;BME280;32573;51.290;6.926;2022-11-20T04:05:08;99718.75;;;3.87;100.00
46836;BME280;32573;51.290;6.926;2022-11-20T04:07:38;99716.16;;;3.87;100.00
46836;BME280;32573;51.290;6.926;2022-11-20T04:10:07;99712.59;;;3.85;100.00
46836;BME280;32573;51.290;6.926;2022-11-20T04:12:35;99723.81;;;3.85;100.00
46836;BME280;32573;51.290;6.926;2022-11-20T04:15:04;99716.06;;;3.85;100.00
46836;BME280;32573;51.290;6.926;2022-11-20T04:17:33;99715.97;;;3.84;100.00
46836;BME280;32573;51.290;6.926;2022-11-20T04:20:01;99716.81;;;3.83;100.00
46836;BME280;32573;51.290;6.926;2022-11-20T04:22:30;99710.75;;;3.82;100.00
46836;BME280;32573;51.290;6.926;2022-11-20T04:24:59;99714.22;;;3.83;100.00
46836;BME280;32573;51.290;6.926;2022-11-20T04:27:28;99718.50;;;3.82;100.00
46836;BME280;32573;51.290;6.926;2022-11-20T04:29:56;99720.19;;;3.82;100.00
46836;BME280;32573;51.290;6.926;2022-11-20T04:32:25;99723.59;;;3.81;100.00
46836;BME280;32573;51.290;6.926;2022-11-20T04:34:53;99718.44;;;3.81;100.00
46836;BME280;32573;51.290;6.926;2022-11-20T04:37:21;99715.00;;;3.82;100.00
46836;BME280;32573;51.290;6.926;2022-11-20T04:39:50;99722.72;;;3.80;100.00
46836;BME280;32573;51.290;6.926;2022-11-20T04:42:19;99720.00;;;3.77;100.00
46836;BME280;32573;51.290;6.926;2022-11-20T04:44:58;99720.75;;;3.75;100.00
46836;BME280;32573;51.290;6.926;2022-11-20T04:47:26;99727.53;;;3.73;100.00
46836;BME280;32573;51.290;6.926;2022-11-20T04:49:55;99726.72;;;3.74;100.00
46836;BME280;32573;51.290;6.926;2022-11-20T04:52:23;99722.38;;;3.73;100.00
46836;BME280;32573;51.290;6.926;2022-11-20T04:54:52;99727.53;;;3.73;100.00
46836;BME280;32573;51.290;6.926;2022-11-20T04:57:22;99723.16;;;3.72;100.00
46836;BME280;32573;51.290;6.926;2022-11-20T04:59:50;99717.94;;;3.70;100.00
46836;BME280;32573;51.290;6.926;2022-11-20T05:02:19;99714.47;;;3.70;100.00
46836;BME280;32573;51.290;6.926;2022-11-20T05:04:48;99722.22;;;3.70;100.00
46836;BME280;32573;51.290;6.926;2022-11-20T05:07:16;99717.84;;;3.68;100.00
46836;BME280;32573;51.290;6.926;2022-11-20T05:09:45;99718.72;;;3.69;100.00
46836;BME280;32573;51.290;6.926;2022-11-20T05:12:13;99717.84;;;3.68;100.00
46836;BME280;32573;51.290;6.926;2022-11-20T05:14:43;99718.81;;;3.71;100.00
46836;BME280;32573;51.290;6.926;2022-11-20T05:17:12;99723.91;;;3.69;100.00
46836;BME280;32573;51.290;6.926;2022-11-20T05:19:40;99717.78;;;3.67;100.00
46836;BME280;32573;51.290;6.926;2022-11-20T05:22:08;99725.56;;;3.67;100.00
46836;BME280;32573;51.290;6.926;2022-11-20T05:24:37;99722.13;;;3.68;100.00
46836;BME280;32573;51.290;6.926;2022-11-20T05:27:05;99723.03;;;3.68;100.00
46836;BME280;32573;51.290;6.926;2022-11-20T05:29:33;99724.81;;;3.70;100.00
46836;BME280;32573;51.290;6.926;2022-11-20T05:32:03;99723.91;;;3.69;100.00
46836;BME280;32573;51.290;6.926;2022-11-20T05:34:34;99722.13;;;3.68;100.00
46836;BME280;32573;51.290;6.926;2022-11-20T05:37:02;99723.91;;;3.69;100.00
46836;BME280;32573;51.290;6.926;2022-11-20T05:39:31;99721.41;;;3.71;100.00
46836;BME280;32573;51.290;6.926;2022-11-20T05:41:59;99712.81;;;3.72;100.00
46836;BME280;32573;51.290;6.926;2022-11-20T05:44:45;99712.81;;;3.72;100.00
46836;BME280;32573;51.290;6.926;2022-11-20T05:47:14;99717.06;;;3.70;100.00
46836;BME280;32573;51.290;6.926;2022-11-20T05:49:43;99718.72;;;3.69;100.00
46836;BME280;32573;51.290;6.926;2022-11-20T05:52:11;99719.63;;;3.70;100.00
46836;BME280;32573;51.290;6.926;2022-11-20T05:54:40;99722.22;;;3.70;100.00
46836;BME280;32573;51.290;6.926;2022-11-20T05:57:08;99722.22;;;3.70;100.00
46836;BME280;32573;51.290;6.926;2022-11-20T05:59:36;99723.03;;;3.68;100.00
46836;BME280;32573;51.290;6.926;2022-11-20T06:02:05;99715.22;;;3.67;100.00
46836;BME280;32573;51.290;6.926;2022-11-20T06:04:35;99714.28;;;3.66;100.00
46836;BME280;32573;51.290;6.926;2022-11-20T06:07:04;99711.56;;;3.63;100.00
46836;BME280;32573;51.290;6.926;2022-11-20T06:09:33;99707.28;;;3.64;100.00
46836;BME280;32573;51.290;6.926;2022-11-20T06:12:02;99714.16;;;3.63;100.00
46836;BME280;32573;51.290;6.926;2022-11-20T06:14:30;99714.16;;;3.63;100.00
46836;BME280;32573;51.290;6.926;2022-11-20T06:16:58;99717.72;;;3.65;100.00
46836;BME280;32573;51.290;6.926;2022-11-20T06:19:27;99715.84;;;3.63;100.00
46836;BME280;32573;51.290;6.926;2022-11-20T06:21:56;99710.59;;;3.61;100.00
46836;BME280;32573;51.290;6.926;2022-11-20T06:24:25;99714.00;;;3.60;100.00
46836;BME280;32573;51.290;6.926;2022-11-20T06:26:53;99719.97;;;3.59;100.00
46836;BME280;32573;51.290;6.926;2022-11-20T06:29:22;99715.63;;;3.58;100.00
46836;BME280;32573;51.290;6.926;2022-11-20T06:31:52;99717.25;;;3.56;100.00
46836;BME280;32573;51.290;6.926;2022-11-20T06:34:20;99717.19;;;3.55;100.00
46836;BME280;32573;51.290;6.926;2022-11-20T06:36:48;99713.69;;;3.54;100.00
46836;BME280;32573;51.290;6.926;2022-11-20T06:39:18;99724.03;;;3.54;100.00
46836;BME280;32573;51.290;6.926;2022-11-20T06:41:47;99724.03;;;3.54;100.00
46836;BME280;32573;51.290;6.926;2022-11-20T06:44:19;99727.59;;;3.56;100.00
46836;BME280;32573;51.290;6.926;2022-11-20T06:46:47;99727.59;;;3.56;100.00
46836;BME280;32573;51.290;6.926;2022-11-20T06:49:15;99728.47;;;3.57;100.00
46836;BME280;32573;51.290;6.926;2022-11-20T06:51:44;99727.59;;;3.56;100.00
46836;BME280;32573;51.290;6.926;2022-11-20T06:54:12;99731.91;;;3.56;100.00
46836;BME280;32573;51.290;6.926;2022-11-20T06:56:42;99729.31;;;3.56;100.00
46836;BME280;32573;51.290;6.926;2022-11-20T06:59:14;99728.44;;;3.55;100.00
46836;BME280;32573;51.290;6.926;2022-11-20T07:01:42;99730.13;;;3.55;100.00
46836;BME280;32573;51.290;6.926;2022-11-20T07:04:11;99722.44;;;3.56;100.00
46836;BME280;32573;51.290;6.926;2022-11-20T07:06:39;99733.66;;;3.57;100.00
46836;BME280;32573;51.290;6.926;2022-11-20T07:09:07;99746.69;;;3.58;100.00
46836;BME280;32573;51.290;6.926;2022-11-20T07:11:39;99745.06;;;3.60;100.00
46836;BME280;32573;51.290;6.926;2022-11-20T07:14:08;99743.25;;;3.59;100.00
46836;BME280;32573;51.290;6.926;2022-11-20T07:16:37;99750.25;;;3.60;100.00
46836;BME280;32573;51.290;6.926;2022-11-20T07:19:05;99745.94;;;3.61;100.00
46836;BME280;32573;51.290;6.926;2022-11-20T07:21:34;99745.94;;;3.61;100.00
46836;BME280;32573;51.290;6.926;2022-11-20T07:24:02;99746.81;;;3.61;100.00
46836;BME280;32573;51.290;6.926;2022-11-20T07:26:31;99736.47;;;3.61;100.00
46836;BME280;32573;51.290;6.926;2022-11-20T07:28:59;99740.75;;;3.61;100.00
46836;BME280;32573;51.290;6.926;2022-11-20T07:31:29;99744.19;;;3.60;100.00
46836;BME280;32573;51.290;6.926;2022-11-20T07:33:57;99746.69;;;3.58;100.00
46836;BME280;32573;51.290;6.926;2022-11-20T07:36:25;99741.38;;;3.55;100.00
46836;BME280;32573;51.290;6.926;2022-11-20T07:38:54;99738.69;;;3.54;100.00
46836;BME280;32573;51.290;6.926;2022-11-20T07:41:22;99747.19;;;3.51;100.00
46836;BME280;32573;51.290;6.926;2022-11-20T07:43:51;99743.63;;;3.49;100.00
46836;BME280;32573;51.290;6.926;2022-11-20T07:46:19;99742.69;;;3.47;100.00
46836;BME280;32573;51.290;6.926;2022-11-20T07:48:49;99735.72;;;3.46;100.00
46836;BME280;32573;51.290;6.926;2022-11-20T07:51:17;99742.53;;;3.44;100.00
46836;BME280;32573;51.290;6.926;2022-11-20T07:53:45;99729.53;;;3.42;100.00
46836;BME280;32573;51.290;6.926;2022-11-20T07:56:14;99722.56;;;3.41;100.00
46836;BME280;32573;51.290;6.926;2022-11-20T07:58:42;99719.94;;;3.40;100.00
46836;BME280;32573;51.290;6.926;2022-11-20T08:01:10;99723.31;;;3.39;100.00
46836;BME280;32573;51.290;6.926;2022-11-20T08:03:39;99720.66;;;3.37;100.00
46836;BME280;32573;51.290;6.926;2022-11-20T08:06:09;99734.47;;;3.38;100.00
46836;BME280;32573;51.290;6.926;2022-11-20T08:08:37;99727.59;;;3.38;100.00
46836;BME280;32573;51.290;6.926;2022-11-20T08:11:09;99729.44;;;3.41;100.00
46836;BME280;32573;51.290;6.926;2022-11-20T08:13:55;99727.00;;;3.44;100.00
46836;BME280;32573;51.290;6.926;2022-11-20T08:16:43;99725.38;;;3.46;100.00
46836;BME280;32573;51.290;6.926;2022-11-20T08:19:12;99728.94;;;3.48;100.00
46836;BME280;32573;51.290;6.926;2022-11-20T08:21:43;99733.38;;;3.51;100.00
46836;BME280;32573;51.290;6.926;2022-11-20T08:24:12;99736.06;;;3.52;100.00
46836;BME280;32573;51.290;6.926;2022-11-20T08:26:40;99736.19;;;3.55;100.00
46836;BME280;32573;51.290;6.926;2022-11-20T08:29:08;99741.50;;;3.58;100.00
46836;BME280;32573;51.290;6.926;2022-11-20T08:31:37;99734.72;;;3.60;100.00
46836;BME280;32573;51.290;6.926;2022-11-20T08:34:05;99736.66;;;3.64;100.00
46836;BME280;32573;51.290;6.926;2022-11-20T08:36:36;99740.25;;;3.68;100.00
46836;BME280;32573;51.290;6.926;2022-11-20T08:39:06;99740.34;;;3.70;100.00
46836;BME280;32573;51.290;6.926;2022-11-20T08:41:34;99742.25;;;3.74;100.00
46836;BME280;32573;51.290;6.926;2022-11-20T08:44:05;99738.13;;;3.77;100.00
46836;BME280;32573;51.290;6.926;2022-11-20T08:46:36;99743.44;;;3.80;100.00
46836;BME280;32573;51.290;6.926;2022-11-20T08:49:05;99740.97;;;3.83;100.00
46836;BME280;32573;51.290;6.926;2022-11-20T08:51:34;99748.97;;;3.88;100.00
46836;BME280;32573;51.290;6.926;2022-11-20T08:54:03;99742.16;;;3.90;100.00
46836;BME280;32573;51.290;6.926;2022-11-20T08:56:34;99744.91;;;3.93;100.00
46836;BME280;32573;51.290;6.926;2022-11-20T08:59:02;99743.31;;;3.97;100.00
46836;BME280;32573;51.290;6.926;2022-11-20T09:01:51;99733.94;;;3.99;100.00
46836;BME280;32573;51.290;6.926;2022-11-20T09:04:19;99738.38;;;4.01;100.00
46836;BME280;32573;51.290;6.926;2022-11-20T09:06:48;99742.81;;;4.04;100.00
46836;BME280;32573;51.290;6.926;2022-11-20T09:09:18;99742.06;;;4.06;100.00
46836;BME280;32573;51.290;6.926;2022-11-20T09:11:48;99745.63;;;4.08;100.00
46836;BME280;32573;51.290;6.926;2022-11-20T09:14:17;99732.63;;;4.07;100.00
46836;BME280;32573;51.290;6.926;2022-11-20T09:16:46;99722.25;;;4.07;100.00
46836;BME280;32573;51.290;6.926;2022-11-20T09:19:14;99725.72;;;4.07;100.00
46836;BME280;32573;51.290;6.926;2022-11-20T09:22:03;99726.69;;;4.09;100.00
46836;BME280;32573;51.290;6.926;2022-11-20T09:24:31;99722.53;;;4.13;100.00
46836;BME280;32573;51.290;6.926;2022-11-20T09:27:03;99714.97;;;4.18;100.00
46836;BME280;32573;51.290;6.926;2022-11-20T09:29:31;99710.00;;;4.22;100.00
46836;BME280;32573;51.290;6.926;2022-11-20T09:32:00;99701.50;;;4.25;100.00
46836;BME280;32573;51.290;6.926;2022-11-20T09:34:28;99704.22;;;4.28;100.00
46836;BME280;32573;51.290;6.926;2022-11-20T09:36:57;99703.53;;;4.32;100.00
46836;BME280;32573;51.290;6.926;2022-11-20T09:39:30;99698.41;;;4.33;100.00
46836;BME280;32573;51.290;6.926;2022-11-20T09:42:08;99702.94;;;4.38;100.00
46836;BME280;32573;51.290;6.926;2022-11-20T09:44:59;99704.75;;;4.40;100.00
46836;BME280;32573;51.290;6.926;2022-11-20T09:47:37;99699.63;;;4.42;100.00
46836;BME280;32573;51.290;6.926;2022-11-20T09:50:24;99701.44;;;4.43;100.00
46836;BME280;32573;51.290;6.926;2022-11-20T09:53:07;99700.66;;;4.45;100.00
46836;BME280;32573;51.290;6.926;2022-11-20T09:55:38;99696.44;;;4.47;100.00
46836;BME280;32573;51.290;6.926;2022-11-20T09:58:15;99688.69;;;4.47;100.00
46836;BME280;32573;51.290;6.926;2022-11-20T10:00:47;99692.22;;;4.49;100.00
46836;BME280;32573;51.290;6.926;2022-11-20T10:03:19;99695.81;;;4.53;100.00
46836;BME280;32573;51.290;6.926;2022-11-20T10:05:53;99693.25;;;4.53;100.00
46836;BME280;32573;51.290;6.926;2022-11-20T10:08:24;99696.72;;;4.53;100.00
46836;BME280;32573;51.290;6.926;2022-11-20T10:11:04;99695.91;;;4.54;100.00
46836;BME280;32573;51.290;6.926;2022-11-20T10:13:46;99699.44;;;4.57;100.00
46836;BME280;32573;51.290;6.926;2022-11-20T10:16:28;99696.03;;;4.58;100.00
46836;BME280;32573;51.290;6.926;2022-11-20T10:19:16;99682.25;;;4.59;100.00
46836;BME280;32573;51.290;6.926;2022-11-20T10:21:58;99690.97;;;4.61;100.00
46836;BME280;32573;51.290;6.926;2022-11-20T10:24:44;99685.78;;;4.61;100.00
46836;BME280;32573;51.290;6.926;2022-11-20T10:27:30;99675.44;;;4.61;100.00
46836;BME280;32573;51.290;6.926;2022-11-20T10:30:09;99666.81;;;4.62;100.00
46836;BME280;32573;51.290;6.926;2022-11-20T10:32:42;99658.25;;;4.63;100.00
46836;BME280;32573;51.290;6.926;2022-11-20T10:35:20;99654.97;;;4.67;100.00
46836;BME280;32573;51.290;6.926;2022-11-20T10:37:54;99658.50;;;4.69;100.00
46836;BME280;32573;51.290;6.926;2022-11-20T10:40:29;99649.09;;;4.71;100.00
46836;BME280;32573;51.290;6.926;2022-11-20T10:43:01;99651.00;;;4.75;100.00
46836;BME280;32573;51.290;6.926;2022-11-20T10:45:43;99649.28;;;4.75;100.00
46836;BME280;32573;51.290;6.926;2022-11-20T10:48:16;99651.94;;;4.77;100.00
46836;BME280;32573;51.290;6.926;2022-11-20T10:51:08;99634.72;;;4.79;100.00
46836;BME280;32573;51.290;6.926;2022-11-20T10:53:46;99639.16;;;4.82;100.00
46836;BME280;32573;51.290;6.926;2022-11-20T10:56:20;99641.03;;;4.84;100.00
46836;BME280;32573;51.290;6.926;2022-11-20T10:58:59;99638.56;;;4.87;100.00
46836;BME280;32573;51.290;6.926;2022-11-20T11:01:30;99636.09;;;4.90;100.00
46836;BME280;32573;51.290;6.926;2022-11-20T11:03:58;99636.19;;;4.93;100.00
46836;BME280;32573;51.290;6.926;2022-11-20T11:06:32;99629.38;;;4.95;100.00
46836;BME280;32573;51.290;6.926;2022-11-20T11:09:10;99631.28;;;5.00;100.00
46836;BME280;32573;51.290;6.926;2022-11-20T11:11:40;99628.81;;;5.03;100.00
46836;BME280;32573;51.290;6.926;2022-11-20T11:14:12;99622.00;;;5.05;100.00
46836;BME280;32573;51.290;6.926;2022-11-20T11:16:50;99610.84;;;5.07;100.00
46836;BME280;32573;51.290;6.926;2022-11-20T11:19:19;99604.03;;;5.09;100.00
46836;BME280;32573;51.290;6.926;2022-11-20T11:21:51;99600.66;;;5.12;100.00
46836;BME280;32573;51.290;6.926;2022-11-20T11:24:24;99611.09;;;5.13;100.00
46836;BME280;32573;51.290;6.926;2022-11-20T11:27:12;99596.41;;;5.14;100.00
46836;BME280;32573;51.290;6.926;2022-11-20T11:29:45;99586.03;;;5.14;100.00
46836;BME280;32573;51.290;6.926;2022-11-20T11:32:18;99585.25;;;5.16;100.00
46836;BME280;32573;51.290;6.926;2022-11-20T11:34:59;99585.41;;;5.19;100.00
46836;BME280;32573;51.290;6.926;2022-11-20T11:37:33;99572.47;;;5.21;100.00
46836;BME280;32573;51.290;6.926;2022-11-20T11:40:05;99562.09;;;5.21;100.00
46836;BME280;32573;51.290;6.926;2022-11-20T11:42:54;99567.44;;;5.24;100.00
46836;BME280;32573;51.290;6.926;2022-11-20T11:45:25;99550.19;;;5.26;100.00
46836;BME280;32573;51.290;6.926;2022-11-20T11:47:56;99545.16;;;5.29;100.00
46836;BME280;32573;51.290;6.926;2022-11-20T11:50:27;99546.03;;;5.30;100.00
46836;BME280;32573;51.290;6.926;2022-11-20T11:53:08;99541.72;;;5.30;100.00
46836;BME280;32573;51.290;6.926;2022-11-20T11:55:40;99548.72;;;5.33;100.00
46836;BME280;32573;51.290;6.926;2022-11-20T11:58:20;99536.59;;;5.32;100.00
46836;BME280;32573;51.290;6.926;2022-11-20T12:01:00;99539.22;;;5.33;100.00
46836;BME280;32573;51.290;6.926;2022-11-20T12:03:35;99536.63;;;5.33;100.00
46836;BME280;32573;51.290;6.926;2022-11-20T12:06:08;99531.44;;;5.33;100.00
46836;BME280;32573;51.290;6.926;2022-11-20T12:08:41;99521.06;;;5.33;100.00
46836;BME280;32573;51.290;6.926;2022-11-20T12:11:16;99515.94;;;5.35;100.00
46836;BME280;32573;51.290;6.926;2022-11-20T12:13:48;99516.84;;;5.35;100.00
46836;BME280;32573;51.290;6.926;2022-11-20T12:16:20;99523.75;;;5.35;100.00
46836;BME280;32573;51.290;6.926;2022-11-20T12:18:52;99519.44;;;5.35;100.00
46836;BME280;32573;51.290;6.926;2022-11-20T12:21:28;99524.63;;;5.35;100.00
46836;BME280;32573;51.290;6.926;2022-11-20T12:24:06;99522.03;;;5.35;100.00
46836;BME280;32573;51.290;6.926;2022-11-20T12:26:50;99516.00;;;5.36;100.00
46836;BME280;32573;51.290;6.926;2022-11-20T12:29:32;99511.72;;;5.37;100.00
46836;BME280;32573;51.290;6.926;2022-11-20T12:32:22;99510.00;;;5.37;100.00
46836;BME280;32573;51.290;6.926;2022-11-20T12:35:01;99508.22;;;5.36;100.00
46836;BME280;32573;51.290;6.926;2022-11-20T12:37:46;99501.38;;;5.38;100.00
46836;BME280;32573;51.290;6.926;2022-11-20T12:40:28;99491.94;;;5.40;100.00
46836;BME280;32573;51.290;6.926;2022-11-20T12:43:07;99485.09;;;5.43;100.00
46836;BME280;32573;51.290;6.926;2022-11-20T12:46:08;99480.91;;;5.46;100.00
46836;BME280;32573;51.290;6.926;2022-11-20T12:48:44;99485.28;;;5.47;100.00
46836;BME280;32573;51.290;6.926;2022-11-20T12:54:46;99470.59;;;5.48;100.00
46836;BME280;32573;51.290;6.926;2022-11-20T12:57:21;99472.31;;;5.47;100.00
46836;BME280;32573;51.290;6.926;2022-11-20T13:00:11;99467.16;;;5.49;100.00
46836;BME280;32573;51.290;6.926;2022-11-20T13:03:04;99462.91;;;5.51;100.00
46836;BME280;32573;51.290;6.926;2022-11-20T13:05:43;99454.31;;;5.52;100.00
46836;BME280;32573;51.290;6.926;2022-11-20T13:08:20;99445.69;;;5.53;100.00
46836;BME280;32573;51.290;6.926;2022-11-20T13:10:49;99440.50;;;5.53;100.00
46836;BME280;32573;51.290;6.926;2022-11-20T13:13:32;99438.84;;;5.55;100.00
46836;BME280;32573;51.290;6.926;2022-11-20T13:16:06;99436.19;;;5.53;100.00
46836;BME280;32573;51.290;6.926;2022-11-20T13:18:41;99435.28;;;5.53;100.00
46836;BME280;32573;51.290;6.926;2022-11-20T13:21:16;99442.25;;;5.54;100.00
46836;BME280;32573;51.290;6.926;2022-11-20T13:23:47;99436.19;;;5.53;100.00
46836;BME280;32573;51.290;6.926;2022-11-20T13:26:19;99412.78;;;5.52;100.00
46836;BME280;32573;51.290;6.926;2022-11-20T13:29:01;99415.38;;;5.52;100.00